الصفحة الرئيسية
METAR-TAF:

METAR-TAF

مطار :

السلفادور, السلفادور

دائرة عرض: 13-26N, خط طول: 089-03W, ارتفاع: 25 متر

مراقبة الطقس الحالي

تاريخ ووقت الإصدار 52 دقيقة قبل الساعة 03:50UTC
ريح 6 عقدة من الشرق/الشمال الشرقي
درجة الحرارة 25°درجة مئوية
الرطوبة 94%
ضغط 1012 hPa
الرؤية 10 كم أو أكثر
غيوم قليلة على ارتفاع 800 قدم
غيوم متفرقة على ارتفاع 2000 قدم
غيوم مفككة على ارتفاع 7000 قدم

METAR: MSLP 180350Z 07006KT 9999 FEW008 SCT020 BKN070 25/24 Q1011 A2987 NOSIG

زمن: 22:42 (04:42 UTC)

توقعات

تاريخ ووقت الإصدار 7ساعات و 17 دقيقة قبل الساعة 21:25UTC
التوقعات صالحة من18 الساعة 00 UTC إلى 18 الساعة 24 UTC
ريح 6 عقدة من الشرق/الجنوب الشرقي
الرؤية: 8000 متر
مطر
من 18 الساعة 0600 UTC
الرؤية: 3000 متر
غيوم متفرقة على ارتفاع 1000 قدم
غيوم مفككة على ارتفاع 1700 قدم
مطر
من 18 الساعة 1400 UTC
ريح 6 عقدة من الشرق/الجنوب الشرقي
الرؤية: 7000 متر
غيوم متفرقة على ارتفاع 1000 قدم
غيوم مفككة على ارتفاع 2000 قدم
غيوم قليلة على ارتفاع 3300 قدم, مزنة ركامية.
مطر

TAF: MSLP 172125Z 1800/1824 11006KT 8000 RA TX29/1819Z TN22/1811Z FM180600 3000 RA SCT010 BKN017 FM181400 12006KT 7000 RA SCT010 BKN020 FEW033CB

أرصاد الطقس والتوقعات من أكثر من 4000 مطار (تقارير الطقس للمطار METAR والتنبؤ بالطقس بالمطارTAF).

المحطات المتاحة هي النقط الصفراء والحمراء على الخريطة.

حرك المؤشر فوق النقطة لمعرفة اسم المحطة.

ثم انقر لمعرفة أرصاد وتوقعات الطقس.

لتغيير الخارطة: اضغط على الأزرار الخضراء مع رمز الصليب الأسود للتكبير. على الزر الأخضر مع شرطة للتصغير، أو على الأسهم الخضراء للخرائط المجاورة.


METAR-TAF: